Kezdőlap
METAR-TAF:

METAR-TAF

Repülőterek :

Fort Sill, Oklahoma, Amerikai Egyesült Államok

földrajzi szélesség: 34-36N, földrajzi hosszúság: 098-24W, magasság: 362 m

Jelenlegi meteorológiai megfigyelések

A jelentés 1 órával és 1 perccel ezelõtt készült, 02:55 UTC
Dél-délkeleti szél 8 kt
Hőmérséklet 28°C
Páratartalom 62%
Légköri nyomás 1016 hPa
Látótávolság: 16.1 km
Derült ég

METAR: KFSI 220255Z AUTO 15008KT 10SM CLR 28/20 A3001 RMK AO2 RAE0154 SLP152 60000 T02830203 55001 FZRANO $

Idő: 22:56 (03:56 UTC)


TAF: hiányzik

Meteorológiai megfigyelések és előrejelzések több, mint 4000 repülőtéren (METAR és TAF jelentéseket).

A térképen piros és sárga pontok jelzik az elérhető meteorológiai állomásokat.

Mozgassa az egeret a pont fölött, hogy megjelenjen az állomás neve.

Azután kattintson az időjárási megfigyelések és előrejelzések megtekintéséhez.

A térkép megváltoztatása: kattintson a fekete keresztel jelölt zöld gombra ráközelítéshez, a vonallal jelölt zöld gombra távolításhoz, vagy a zöld nyilakra a szomszédos térképek eléréséhez.


METAR-TAF: